createdAt,value
2017-01-23T11:07:21.910Z,933.62
2017-01-23T11:08:32.696Z,933.6
2017-01-23T11:09:43.579Z,933.59
2017-01-23T11:10:54.464Z,933.63
2017-01-23T11:12:05.290Z,933.64
2017-01-23T11:13:16.303Z,933.63
2017-01-23T11:14:27.176Z,933.58
2017-01-23T11:15:52.494Z,933.59
2017-01-23T11:17:03.324Z,933.63
2017-01-23T11:18:14.116Z,933.64
2017-01-23T11:19:24.954Z,933.61
2017-01-23T11:20:35.774Z,933.6
2017-01-23T11:21:46.782Z,933.6
2017-01-23T11:22:57.646Z,933.63
2017-01-23T11:24:08.630Z,933.65
2017-01-23T11:25:19.494Z,933.66
2017-01-23T11:26:30.401Z,933.7
2017-01-23T11:27:41.227Z,933.68
2017-01-23T11:28:52.039Z,933.69
2017-01-23T11:30:02.840Z,933.72
2017-01-23T11:31:28.110Z,933.72
2017-01-23T11:32:38.912Z,933.75
2017-01-23T11:33:49.725Z,933.69
2017-01-23T11:35:01.141Z,933.71
2017-01-23T11:36:26.409Z,933.72
2017-01-23T11:37:37.205Z,933.75
2017-01-23T11:38:48.001Z,933.79
2017-01-23T11:39:58.801Z,933.8
2017-01-23T11:41:24.275Z,933.84
2017-01-23T11:42:35.091Z,933.88
2017-01-23T11:43:45.903Z,933.85
2017-01-23T11:44:57.322Z,933.86
2017-01-23T11:46:08.471Z,933.9
2017-01-23T11:48:44.566Z,933.93
2017-01-23T11:49:55.362Z,933.88
2017-01-23T11:51:07.730Z,933.91
2017-01-23T11:52:20.096Z,933.89
2017-01-23T11:53:31.540Z,933.91
2017-01-23T11:54:42.444Z,933.89
2017-01-23T11:56:07.834Z,933.92
2017-01-23T11:57:19.182Z,933.94
2017-01-23T11:59:55.934Z,933.99
2017-01-23T12:01:06.930Z,933.99
2017-01-23T12:02:18.343Z,934.04
2017-01-23T12:04:54.525Z,934.01
2017-01-23T12:06:05.359Z,934.05
2017-01-23T12:07:16.156Z,934.09
2017-01-23T12:08:26.956Z,934.1
2017-01-23T12:09:37.757Z,934.08
2017-01-23T12:10:48.681Z,934.16
2017-01-23T12:12:03.699Z,934.12
2017-01-23T12:13:31.131Z,934.16
2017-01-23T12:14:43.484Z,934.16
2017-01-23T12:15:56.232Z,934.15
2017-01-23T12:17:24.143Z,934.16
2017-01-23T12:18:50.340Z,934.19
2017-01-23T12:20:17.859Z,934.16
2017-01-23T12:21:28.664Z,934.24
2017-01-23T12:22:39.467Z,934.21
2017-01-23T12:23:50.266Z,934.22
2017-01-23T12:25:01.068Z,934.24
2017-01-23T12:26:11.872Z,934.24
2017-01-23T12:27:22.671Z,934.21
2017-01-23T12:28:34.094Z,934.22
2017-01-23T12:29:59.379Z,934.23
2017-01-23T12:31:10.177Z,934.28
2017-01-23T12:32:21.015Z,934.3
2017-01-23T12:33:31.839Z,934.29
2017-01-23T12:34:42.670Z,934.26
2017-01-23T12:35:53.496Z,934.27
2017-01-23T12:37:04.323Z,934.29
2017-01-23T12:38:15.202Z,934.29
2017-01-23T12:39:26.063Z,934.29
2017-01-23T12:40:36.955Z,934.28
2017-01-23T12:41:48.491Z,934.31
2017-01-23T12:42:59.335Z,934.29
2017-01-23T12:44:10.210Z,934.32
2017-01-23T12:45:35.527Z,934.34
2017-01-23T12:46:46.382Z,934.32
2017-01-23T12:47:57.220Z,934.34
2017-01-23T12:49:22.574Z,934.31
2017-01-23T12:50:47.953Z,934.3
2017-01-23T12:51:58.809Z,934.3
2017-01-23T12:53:09.905Z,934.32
2017-01-23T12:54:20.977Z,934.27
2017-01-23T12:55:32.032Z,934.37
2017-01-23T12:56:43.134Z,934.36
2017-01-23T12:57:54.117Z,934.34
2017-01-23T12:59:05.148Z,934.35
2017-01-23T13:00:16.172Z,934.35
2017-01-23T13:01:27.396Z,934.34
2017-01-23T13:02:38.330Z,934.33
2017-01-23T13:03:49.247Z,934.33
2017-01-23T13:05:00.345Z,934.35
2017-01-23T13:06:11.429Z,934.35
2017-01-23T13:07:22.419Z,934.39
2017-01-23T13:08:33.689Z,934.37
2017-01-23T13:09:47.307Z,934.32
2017-01-23T13:11:00.593Z,934.36
2017-01-23T13:12:13.465Z,934.4
2017-01-23T13:13:29.441Z,934.38
2017-01-23T13:14:41.823Z,934.33
2017-01-23T13:15:54.144Z,934.35
2017-01-23T13:17:05.731Z,934.34
2017-01-23T13:18:16.654Z,934.36
2017-01-23T13:19:27.714Z,934.38
2017-01-23T13:20:38.629Z,934.38
2017-01-23T13:21:49.424Z,934.31
2017-01-23T13:23:00.225Z,934.33
2017-01-23T13:24:11.228Z,934.33
2017-01-23T13:25:22.028Z,934.37
2017-01-23T13:26:47.302Z,934.32
2017-01-23T13:27:58.090Z,934.32
2017-01-23T13:29:08.890Z,934.33
2017-01-23T13:31:44.963Z,934.29
2017-01-23T13:32:55.756Z,934.32
2017-01-23T13:34:06.569Z,934.29
2017-01-23T13:35:17.661Z,934.29
2017-01-23T13:36:28.495Z,934.29
2017-01-23T13:37:39.325Z,934.27
2017-01-23T13:38:50.128Z,934.29
2017-01-23T13:40:00.913Z,934.25
2017-01-23T13:41:11.706Z,934.24
2017-01-23T13:42:22.502Z,934.21
2017-01-23T13:43:33.295Z,934.22
2017-01-23T13:44:44.101Z,934.26
2017-01-23T13:45:55.103Z,934.24
2017-01-23T13:47:05.926Z,934.26
2017-01-23T13:48:16.783Z,934.24
2017-01-23T13:49:27.651Z,934.24
2017-01-23T13:50:38.523Z,934.23
2017-01-23T13:51:49.361Z,934.23
2017-01-23T13:53:00.207Z,934.27
2017-01-23T13:54:11.031Z,934.22
2017-01-23T13:55:22.010Z,934.22
2017-01-23T13:56:32.845Z,934.19
2017-01-23T13:57:43.905Z,934.18
2017-01-23T13:58:55.329Z,934.19
2017-01-23T14:00:06.164Z,934.21
2017-01-23T14:01:17.045Z,934.18
2017-01-23T14:02:28.508Z,934.19
2017-01-23T14:03:39.676Z,934.17
2017-01-23T14:04:50.476Z,934.17
2017-01-23T14:06:15.790Z,934.21
2017-01-23T14:07:41.129Z,934.2
2017-01-23T14:08:52.235Z,934.19
2017-01-23T14:10:03.083Z,934.22
2017-01-23T14:11:13.889Z,934.17
2017-01-23T14:12:24.696Z,934.2
2017-01-23T14:13:35.486Z,934.22
2017-01-23T14:14:46.278Z,934.25
2017-01-23T14:15:57.068Z,934.2
2017-01-23T14:17:07.871Z,934.24
2017-01-23T14:18:20.518Z,934.18
2017-01-23T14:19:31.326Z,934.18
2017-01-23T14:20:42.144Z,934.14
2017-01-23T14:21:52.935Z,934.15
2017-01-23T14:23:03.724Z,934.13
2017-01-23T14:24:14.519Z,934.14
2017-01-23T14:25:25.315Z,934.13
2017-01-23T14:26:36.301Z,934.13
2017-01-23T14:27:47.094Z,934.11
2017-01-23T14:29:12.363Z,934.15
2017-01-23T14:30:23.339Z,934.14
2017-01-23T14:31:34.885Z,934.15
2017-01-23T14:32:46.049Z,934.15
2017-01-23T14:33:57.329Z,934.17
2017-01-23T14:35:08.344Z,934.15
2017-01-23T14:36:19.133Z,934.11
2017-01-23T14:38:55.186Z,934.11
2017-01-23T14:40:05.977Z,934.11
2017-01-23T14:42:42.281Z,934.07
2017-01-23T14:43:53.069Z,934.1
2017-01-23T14:45:03.856Z,934.08
2017-01-23T14:46:14.641Z,934.09
2017-01-23T14:47:25.428Z,934.11
2017-01-23T14:48:36.820Z,934.09
2017-01-23T14:49:47.621Z,934.09
2017-01-23T14:50:58.411Z,934.08
2017-01-23T14:52:09.227Z,934.09
2017-01-23T14:53:20.008Z,934.08
2017-01-23T14:54:30.788Z,934.07
2017-01-23T14:55:41.572Z,934.09
2017-01-23T14:56:52.361Z,934.1
2017-01-23T14:58:03.150Z,934.1
2017-01-23T14:59:13.951Z,934.1
2017-01-23T15:00:24.989Z,934.07
2017-01-23T15:01:35.778Z,934.03
2017-01-23T15:02:46.563Z,934.08
2017-01-23T15:03:57.382Z,934.06
2017-01-23T15:05:08.193Z,934.04
2017-01-23T15:06:19.330Z,934
2017-01-23T15:07:30.113Z,934.04
2017-01-23T15:08:40.902Z,934.05
2017-01-23T15:10:06.166Z,934
2017-01-23T15:11:16.946Z,934.01
2017-01-23T15:12:27.728Z,934.02
2017-01-23T15:13:38.517Z,934.02
2017-01-23T15:14:49.307Z,934
2017-01-23T15:16:00.096Z,933.98
2017-01-23T15:17:40.185Z,933.98
2017-01-23T15:18:50.970Z,933.97
2017-01-23T15:20:01.755Z,934
2017-01-23T15:21:12.545Z,933.97
2017-01-23T15:22:23.335Z,933.95
2017-01-23T15:23:34.146Z,933.87
2017-01-23T15:24:45.539Z,933.88
2017-01-23T15:25:56.371Z,933.89
2017-01-23T15:27:07.202Z,933.86
2017-01-23T15:28:32.468Z,933.83
2017-01-23T15:29:43.257Z,933.83
2017-01-23T15:30:54.075Z,933.75
2017-01-23T15:32:04.867Z,933.76
2017-01-23T15:33:15.653Z,933.78
2017-01-23T15:34:26.444Z,933.72
2017-01-23T15:35:37.233Z,933.7
2017-01-23T15:36:48.039Z,933.66
2017-01-23T15:37:58.832Z,933.66
2017-01-23T15:39:09.629Z,933.63
2017-01-23T15:43:10.963Z,933.64
2017-01-23T15:44:21.776Z,933.66
2017-01-23T15:45:32.580Z,933.61
2017-01-23T15:46:43.389Z,933.62
2017-01-23T15:47:54.193Z,933.64
2017-01-23T15:49:05.001Z,933.57
2017-01-23T15:50:16.148Z,933.56
2017-01-23T15:51:26.978Z,933.55
2017-01-23T15:52:37.783Z,933.56
2017-01-23T15:55:13.868Z,933.5
2017-01-23T15:56:24.675Z,933.47
2017-01-23T15:57:35.489Z,933.49
2017-01-23T15:58:46.299Z,933.47
2017-01-23T15:59:57.109Z,933.45
2017-01-23T16:01:08.120Z,933.4
2017-01-23T16:02:18.930Z,933.4
2017-01-23T16:03:29.736Z,933.41
2017-01-23T16:04:40.543Z,933.37
2017-01-23T16:05:51.352Z,933.4
2017-01-23T16:07:02.168Z,933.35
2017-01-23T16:08:13.810Z,933.24
2017-01-23T16:09:24.619Z,933.29
2017-01-23T16:10:35.428Z,933.33
2017-01-23T16:11:46.232Z,933.29
2017-01-23T16:14:22.321Z,933.28
2017-01-23T16:15:47.602Z,933.18
2017-01-23T16:16:58.999Z,933.13
2017-01-23T16:18:10.140Z,933.18
2017-01-23T16:19:20.928Z,933.14
2017-01-23T16:20:46.190Z,933.09
2017-01-23T16:21:57.588Z,933.06
2017-01-23T16:23:08.408Z,933.01
2017-01-23T16:24:19.195Z,932.98
2017-01-23T16:25:29.985Z,932.97
2017-01-23T16:26:40.776Z,932.97
2017-01-23T16:27:51.568Z,932.92
2017-01-23T16:29:02.619Z,932.91
2017-01-23T16:30:13.440Z,932.92
2017-01-23T16:31:24.228Z,932.89
2017-01-23T16:32:35.018Z,932.83
2017-01-23T16:33:45.810Z,932.81
2017-01-23T16:34:56.599Z,932.82
2017-01-23T16:36:07.398Z,932.77
2017-01-23T16:37:18.212Z,932.74
2017-01-23T16:38:29.038Z,932.75
2017-01-23T16:39:39.867Z,932.68
2017-01-23T16:40:50.740Z,932.69
2017-01-23T16:42:01.596Z,932.7
2017-01-23T16:43:12.415Z,932.69
2017-01-23T16:44:23.201Z,932.68
2017-01-23T16:45:48.471Z,932.67
2017-01-23T16:46:59.275Z,932.67
2017-01-23T16:48:10.079Z,932.66
2017-01-23T16:49:21.674Z,932.68
2017-01-23T16:50:32.481Z,932.68
2017-01-23T16:51:43.561Z,932.68
2017-01-23T16:52:54.357Z,932.65
2017-01-23T16:54:05.158Z,932.65
2017-01-23T16:55:31.036Z,932.62
2017-01-23T16:56:41.843Z,932.62
2017-01-23T16:57:52.635Z,932.61
2017-01-23T16:59:03.428Z,932.61
2017-01-23T17:00:14.225Z,932.6
2017-01-23T17:01:25.021Z,932.6
2017-01-23T17:02:35.826Z,932.62
2017-01-23T17:03:46.835Z,932.65
2017-01-23T17:05:12.139Z,932.59
2017-01-23T17:06:22.949Z,932.6
2017-01-23T17:07:34.372Z,932.59
2017-01-23T17:08:45.263Z,932.59
2017-01-23T17:09:56.831Z,932.59
2017-01-23T17:11:07.696Z,932.57
2017-01-23T17:12:18.532Z,932.53
2017-01-23T17:13:29.561Z,932.5
2017-01-23T17:14:40.361Z,932.51
2017-01-23T17:15:51.190Z,932.51
2017-01-23T17:17:01.999Z,932.46
2017-01-23T17:18:12.817Z,932.45
2017-01-23T17:19:23.636Z,932.43
2017-01-23T17:20:34.490Z,932.4
2017-01-23T17:21:45.279Z,932.36
2017-01-23T17:22:56.075Z,932.39
2017-01-23T17:24:06.877Z,932.36
2017-01-23T17:25:17.942Z,932.34
2017-01-23T17:26:28.740Z,932.3
2017-01-23T17:27:39.533Z,932.3
2017-01-23T17:28:50.323Z,932.3
2017-01-23T17:30:01.120Z,932.28
2017-01-23T17:31:12.160Z,932.3
2017-01-23T17:32:22.948Z,932.29
2017-01-23T17:33:33.740Z,932.28
2017-01-23T17:34:44.529Z,932.29
2017-01-23T17:35:55.321Z,932.25
2017-01-23T17:37:06.112Z,932.25
2017-01-23T17:38:31.375Z,932.25
2017-01-23T17:39:42.164Z,932.26
2017-01-23T17:40:52.953Z,932.31
2017-01-23T17:42:03.749Z,932.31
2017-01-23T17:43:14.726Z,932.35
2017-01-23T17:44:25.514Z,932.33
2017-01-23T17:45:36.304Z,932.28
2017-01-23T17:46:47.093Z,932.3
2017-01-23T17:47:57.899Z,932.29
2017-01-23T17:49:08.688Z,932.31
2017-01-23T17:50:19.476Z,932.31
2017-01-23T17:51:30.265Z,932.35
2017-01-23T17:52:41.059Z,932.28
2017-01-23T17:53:51.850Z,932.27
2017-01-23T17:55:02.642Z,932.22
2017-01-23T17:56:13.441Z,932.21
2017-01-23T17:57:24.230Z,932.19
2017-01-23T17:58:35.020Z,932.16
2017-01-23T17:59:45.811Z,932.13
2017-01-23T18:01:11.080Z,932.15
2017-01-23T18:02:22.080Z,932.13
2017-01-23T18:03:33.089Z,932.1
2017-01-23T18:04:48.809Z,932.11
2017-01-23T18:06:14.294Z,932.06
2017-01-23T18:07:39.586Z,932.05
2017-01-23T18:08:50.457Z,932.02
2017-01-23T18:10:03.461Z,931.94
2017-01-23T18:11:16.265Z,931.94
2017-01-23T18:12:27.370Z,931.9
2017-01-23T18:13:38.497Z,931.92
2017-01-23T18:14:51.287Z,931.96
2017-01-23T18:16:03.582Z,931.91
2017-01-23T18:17:14.548Z,931.92
2017-01-23T18:18:25.522Z,931.88
2017-01-23T18:19:36.472Z,931.91
2017-01-23T18:20:47.410Z,931.89
2017-01-23T18:22:12.756Z,931.87
2017-01-23T18:23:38.068Z,931.89
2017-01-23T18:24:48.942Z,931.87
2017-01-23T18:25:59.829Z,931.88
2017-01-23T18:27:10.971Z,931.91
2017-01-23T18:28:21.864Z,931.92
2017-01-23T18:29:32.811Z,931.92
2017-01-23T18:30:43.844Z,931.87
2017-01-23T18:32:09.268Z,931.89
2017-01-23T18:33:20.228Z,931.9
2017-01-23T18:34:31.274Z,931.87
2017-01-23T18:35:42.198Z,931.86
2017-01-23T18:36:53.235Z,931.86
2017-01-23T18:38:04.215Z,931.89
2017-01-23T18:39:15.280Z,931.91
2017-01-23T18:40:26.350Z,931.93
2017-01-23T18:41:37.390Z,931.93
2017-01-23T18:43:02.858Z,931.97
2017-01-23T18:44:13.804Z,931.95
2017-01-23T18:45:24.813Z,931.96
2017-01-23T18:46:35.885Z,931.97
2017-01-23T18:47:46.953Z,931.93
2017-01-23T18:48:57.983Z,931.87
2017-01-23T18:50:08.783Z,931.85
2017-01-23T18:51:34.050Z,931.88
2017-01-23T18:52:44.850Z,931.9
2017-01-23T18:53:55.639Z,931.92
2017-01-23T18:55:06.683Z,931.89
2017-01-23T18:56:17.471Z,931.9
2017-01-23T18:57:28.908Z,931.86
2017-01-23T18:58:39.701Z,931.96
2017-01-23T18:59:50.489Z,932.03
2017-01-23T19:01:01.277Z,931.95
2017-01-23T19:02:12.068Z,931.95
2017-01-23T19:03:22.854Z,931.94
2017-01-23T19:04:33.655Z,931.96
2017-01-23T19:05:44.453Z,932
2017-01-23T19:06:55.257Z,931.98
2017-01-23T19:08:06.058Z,932
2017-01-23T19:09:16.886Z,932.04
2017-01-23T19:10:27.692Z,932.06
2017-01-23T19:11:38.772Z,932.02
2017-01-23T19:12:49.576Z,931.97
2017-01-23T19:14:00.385Z,931.89
2017-01-23T19:15:25.668Z,931.86
2017-01-23T19:16:50.931Z,931.85
2017-01-23T19:18:01.717Z,931.86
2017-01-23T19:19:12.507Z,931.85
2017-01-23T19:20:23.292Z,931.83
2017-01-23T19:21:34.079Z,931.78
2017-01-23T19:22:44.865Z,931.77
2017-01-23T19:23:55.674Z,931.76
2017-01-23T19:25:06.461Z,931.72
2017-01-23T19:26:17.249Z,931.74
2017-01-23T19:27:28.038Z,931.69
2017-01-23T19:28:38.827Z,931.65
2017-01-23T19:29:49.615Z,931.67
2017-01-23T19:31:00.400Z,931.67
2017-01-23T19:32:11.190Z,931.62
2017-01-23T19:33:21.978Z,931.61
2017-01-23T19:34:47.244Z,931.57
2017-01-23T19:35:58.057Z,931.56
2017-01-23T19:37:08.864Z,931.54
2017-01-23T19:38:19.654Z,931.54
2017-01-23T19:39:30.791Z,931.54
2017-01-23T19:40:41.576Z,931.51
2017-01-23T19:41:52.360Z,931.49
2017-01-23T19:43:03.147Z,931.5
2017-01-23T19:44:13.944Z,931.52
2017-01-23T19:45:39.968Z,931.5
2017-01-23T19:46:50.775Z,931.46
2017-01-23T19:48:16.049Z,931.46
2017-01-23T19:49:26.864Z,931.42
2017-01-23T19:50:37.689Z,931.43
2017-01-23T19:51:48.491Z,931.38
2017-01-23T19:52:59.289Z,931.4
2017-01-23T19:54:10.091Z,931.37
2017-01-23T19:55:20.894Z,931.33
2017-01-23T19:56:31.690Z,931.39
2017-01-23T19:57:42.489Z,931.38
2017-01-23T19:58:53.280Z,931.41
2017-01-23T20:00:04.068Z,931.43
2017-01-23T20:01:15.462Z,931.43
2017-01-23T20:02:40.727Z,931.49
2017-01-23T20:03:51.516Z,931.51
2017-01-23T20:05:02.308Z,931.54
2017-01-23T20:06:13.097Z,931.52
2017-01-23T20:07:23.887Z,931.55
2017-01-23T20:08:34.677Z,931.59
2017-01-23T20:11:10.734Z,931.54
2017-01-23T20:12:21.523Z,931.58
2017-01-23T20:13:32.518Z,931.62
2017-01-23T20:14:43.606Z,931.68
2017-01-23T20:15:54.397Z,931.64
2017-01-23T20:17:05.191Z,931.67
2017-01-23T20:19:41.254Z,931.73
2017-01-23T20:20:52.040Z,931.66
2017-01-23T20:22:02.830Z,931.71
2017-01-23T20:23:13.623Z,931.68
2017-01-23T20:24:38.886Z,931.69
2017-01-23T20:25:49.676Z,931.69
2017-01-23T20:27:00.464Z,931.69
2017-01-23T20:28:11.263Z,931.68
2017-01-23T20:29:22.050Z,931.71
2017-01-23T20:30:33.094Z,931.7
2017-01-23T20:31:43.893Z,931.67
2017-01-23T20:32:54.693Z,931.66
2017-01-23T20:34:19.956Z,931.65
2017-01-23T20:35:30.746Z,931.62
2017-01-23T20:38:06.794Z,931.65
2017-01-23T20:39:17.581Z,931.64
2017-01-23T20:40:28.367Z,931.7
2017-01-23T20:41:39.405Z,931.69
2017-01-23T20:42:50.194Z,931.67
2017-01-23T20:44:00.984Z,931.67
2017-01-23T20:45:11.772Z,931.69
2017-01-23T20:46:22.564Z,931.69
2017-01-23T20:47:33.356Z,931.73
2017-01-23T20:48:44.141Z,931.69
2017-01-23T20:49:54.938Z,931.76
2017-01-23T20:51:20.205Z,931.8
2017-01-23T20:52:31.009Z,931.8
2017-01-23T20:53:41.799Z,931.84
2017-01-23T20:54:52.606Z,931.84
2017-01-23T20:56:03.404Z,931.89
2017-01-23T20:57:14.449Z,931.87
2017-01-23T20:58:25.257Z,931.84
2017-01-23T20:59:36.057Z,931.86
2017-01-23T21:00:46.856Z,931.84
2017-01-23T21:03:22.932Z,931.84
2017-01-23T21:04:33.727Z,931.86
2017-01-23T21:05:44.560Z,931.89
2017-01-23T21:06:55.361Z,931.91
2017-01-23T21:08:06.169Z,931.89
2017-01-23T21:09:16.982Z,931.87
2017-01-23T21:10:27.789Z,931.87
2017-01-23T21:11:38.588Z,931.85
2017-01-23T21:12:49.397Z,931.86
2017-01-23T21:14:00.205Z,931.89
2017-01-23T21:15:39.956Z,931.87
2017-01-23T21:17:05.229Z,931.94
2017-01-23T21:18:16.019Z,931.98
2017-01-23T21:19:26.808Z,931.96
2017-01-23T21:20:37.597Z,931.98
2017-01-23T21:21:48.384Z,931.99
2017-01-23T21:22:59.169Z,932.02
2017-01-23T21:24:09.959Z,932.07
2017-01-23T21:25:21.093Z,932.02
2017-01-23T21:26:46.359Z,932.07
2017-01-23T21:27:57.151Z,932.07
2017-01-23T21:29:08.545Z,932.09
2017-01-23T21:30:19.338Z,932.09
2017-01-23T21:31:30.377Z,932.16
2017-01-23T21:32:41.165Z,932.16
2017-01-23T21:33:51.951Z,932.18
2017-01-23T21:35:02.743Z,932.23
2017-01-23T21:36:13.529Z,932.26
2017-01-23T21:37:24.318Z,932.27
2017-01-23T21:38:49.579Z,932.29
2017-01-23T21:40:00.363Z,932.33
2017-01-23T21:41:11.156Z,932.33
2017-01-23T21:42:22.198Z,932.37
2017-01-23T21:43:32.990Z,932.38
2017-01-23T21:44:43.780Z,932.42
2017-01-23T21:45:54.567Z,932.41
2017-01-23T21:47:06.163Z,932.39
2017-01-23T21:48:16.949Z,932.41
2017-01-23T21:49:27.734Z,932.42
2017-01-23T21:50:38.523Z,932.43
2017-01-23T21:51:49.310Z,932.46
2017-01-23T21:53:00.096Z,932.51
2017-01-23T21:54:10.907Z,932.56
2017-01-23T21:55:21.693Z,932.53
2017-01-23T21:56:46.955Z,932.58
2017-01-23T21:57:57.741Z,932.6
2017-01-23T21:59:09.142Z,932.64
2017-01-23T22:00:19.938Z,932.6
2017-01-23T22:01:30.727Z,932.6
2017-01-23T22:02:55.991Z,932.63
2017-01-23T22:04:06.989Z,932.59
2017-01-23T22:05:17.781Z,932.57
2017-01-23T22:06:28.569Z,932.55
2017-01-23T22:07:39.356Z,932.58
2017-01-23T22:08:50.148Z,932.62
2017-01-23T22:10:00.961Z,932.62
2017-01-23T22:11:11.750Z,932.62
2017-01-23T22:12:22.543Z,932.63
2017-01-23T22:13:33.346Z,932.64
2017-01-23T22:14:44.136Z,932.64
2017-01-23T22:15:54.927Z,932.7
2017-01-23T22:17:05.715Z,932.69
2017-01-23T22:18:16.501Z,932.71
2017-01-23T22:19:27.286Z,932.71
2017-01-23T22:20:38.321Z,932.7
2017-01-23T22:21:49.108Z,932.73
2017-01-23T22:22:59.902Z,932.73
2017-01-23T22:24:10.696Z,932.79
2017-01-23T22:25:21.492Z,932.83
2017-01-23T22:26:32.278Z,932.85
2017-01-23T22:27:43.064Z,932.82
2017-01-23T22:28:53.851Z,932.81
2017-01-23T22:30:04.638Z,932.76
2017-01-23T22:31:15.428Z,932.76
2017-01-23T22:32:26.419Z,932.79
2017-01-23T22:33:37.216Z,932.78
2017-01-23T22:34:48.014Z,932.75
2017-01-23T22:35:58.815Z,932.78
2017-01-23T22:37:09.614Z,932.79
2017-01-23T22:38:20.666Z,932.83
2017-01-23T22:39:45.932Z,932.84
2017-01-23T22:40:56.720Z,932.84
2017-01-23T22:42:07.535Z,932.84
2017-01-23T22:43:18.328Z,932.86
2017-01-23T22:44:29.377Z,932.89
2017-01-23T22:45:40.168Z,932.87
2017-01-23T22:46:50.967Z,932.85
2017-01-23T22:48:01.759Z,932.87
2017-01-23T22:49:12.562Z,932.86
2017-01-23T22:50:23.356Z,932.89
2017-01-23T22:51:34.159Z,932.91
2017-01-23T22:52:44.952Z,932.97
2017-01-23T22:53:55.756Z,932.99
2017-01-23T22:55:06.577Z,933.02
2017-01-23T22:56:17.367Z,933.03
2017-01-23T22:57:28.154Z,933.07
2017-01-23T22:58:38.973Z,933.06
2017-01-23T22:59:49.772Z,933.13
2017-01-23T23:01:00.808Z,933.12
2017-01-23T23:02:11.594Z,933.14
2017-01-23T23:03:22.378Z,933.18
2017-01-23T23:04:33.160Z,933.18
2017-01-23T23:05:43.953Z,933.19
2017-01-23T23:06:54.953Z,933.18
2017-01-23T23:08:05.744Z,933.24
2017-01-23T23:09:16.536Z,933.26
2017-01-23T23:10:27.344Z,933.27
2017-01-23T23:11:38.143Z,933.3
2017-01-23T23:12:49.297Z,933.33
2017-01-23T23:14:00.099Z,933.37
2017-01-23T23:15:10.910Z,933.37
2017-01-23T23:16:21.719Z,933.39
2017-01-23T23:17:32.531Z,933.38
2017-01-23T23:18:57.811Z,933.42
2017-01-23T23:20:08.613Z,933.45
2017-01-23T23:21:19.414Z,933.44
2017-01-23T23:22:30.221Z,933.47
2017-01-23T23:23:41.049Z,933.51
2017-01-23T23:24:52.051Z,933.5
2017-01-23T23:26:02.861Z,933.5
2017-01-23T23:27:13.661Z,933.53
2017-01-23T23:28:24.454Z,933.59
2017-01-23T23:29:35.252Z,933.56
2017-01-23T23:30:46.256Z,933.58
2017-01-23T23:31:57.059Z,933.62
2017-01-23T23:33:22.338Z,933.66
2017-01-23T23:34:33.135Z,933.67
2017-01-23T23:35:43.939Z,933.66
2017-01-23T23:36:55.094Z,933.66
2017-01-23T23:38:05.895Z,933.66
2017-01-23T23:39:16.696Z,933.7
2017-01-23T23:40:27.486Z,933.69
2017-01-23T23:41:38.633Z,933.71
2017-01-23T23:42:49.424Z,933.75
2017-01-23T23:44:00.223Z,933.8
2017-01-23T23:45:11.028Z,933.79
2017-01-23T23:46:21.824Z,933.84
2017-01-23T23:48:01.571Z,933.87
2017-01-23T23:49:12.365Z,933.94
2017-01-23T23:50:23.154Z,933.99
2017-01-23T23:51:33.949Z,934.01
2017-01-23T23:52:44.737Z,934.01
2017-01-23T23:53:55.524Z,934.01
2017-01-23T23:55:06.313Z,934.02
2017-01-23T23:56:17.114Z,934.02
2017-01-23T23:58:53.650Z,934.03
